IBB387 GCHI-GCLP
Flight info
| Callsign | IBB387 |
|---|---|
| Flight time | 0h 38m |
| Altitude | 13000 |
| Route | LPC |
| Aircraft | AT75/M-SDE2E3FGHIRWXY/LB1 |
Departure
| Time | 2026-04-28 17:13 |
|---|---|
| Airport | El Hierro Airport (GCHI) |
Arrival
| Time | 2026-04-28 17:51 |
|---|---|
| Airport | Gran Canaria Airport (GCLP) |
| Time | Latitude | Longitude | Altitude | Speed | Heading |
|---|---|---|---|---|---|
| 2026-04-28 16:58 | 27.81462 | -17.88580 | 108 ft | 0 kts | 329° |
| 2026-04-28 17:09 | 27.81462 | -17.88581 | 108 ft | 0 kts | 329° |
| 2026-04-28 17:09 | 27.81463 | -17.88581 | 108 ft | 0 kts | 329° |
| 2026-04-28 17:10 | 27.81464 | -17.88582 | 108 ft | 1 kts | 319° |
| 2026-04-28 17:10 | 27.81475 | -17.88611 | 108 ft | 6 kts | 250° |
| 2026-04-28 17:10 | 27.81447 | -17.88675 | 108 ft | 10 kts | 253° |
| 2026-04-28 17:10 | 27.81476 | -17.88702 | 108 ft | 8 kts | 336° |
| 2026-04-28 17:11 | 27.81532 | -17.88735 | 108 ft | 11 kts | 332° |
| 2026-04-28 17:11 | 27.81608 | -17.88779 | 108 ft | 14 kts | 333° |
| 2026-04-28 17:11 | 27.81699 | -17.88831 | 108 ft | 15 kts | 333° |
| 2026-04-28 17:11 | 27.81799 | -17.88888 | 108 ft | 17 kts | 332° |
| 2026-04-28 17:12 | 27.81892 | -17.88944 | 108 ft | 13 kts | 332° |
| 2026-04-28 17:12 | 27.81936 | -17.88984 | 108 ft | 7 kts | 297° |
| 2026-04-28 17:12 | 27.81967 | -17.89002 | 108 ft | 5 kts | 75° |
| 2026-04-28 17:12 | 27.81881 | -17.88938 | 108 ft | 47 kts | 153° |
| 2026-04-28 17:13 | 27.81341 | -17.88626 | 108 ft | 120 kts | 152° |
| 2026-04-28 17:13 | 27.80515 | -17.88141 | 455 ft | 134 kts | 153° |
| 2026-04-28 17:13 | 27.79636 | -17.87641 | 870 ft | 157 kts | 153° |
| 2026-04-28 17:13 | 27.78558 | -17.87036 | 1139 ft | 180 kts | 153° |
| 2026-04-28 17:14 | 27.77419 | -17.86399 | 1678 ft | 182 kts | 154° |
| 2026-04-28 17:14 | 27.76291 | -17.85756 | 2291 ft | 181 kts | 153° |
| 2026-04-28 17:14 | 27.75160 | -17.85116 | 2888 ft | 181 kts | 153° |
| 2026-04-28 17:14 | 27.74068 | -17.84457 | 3464 ft | 176 kts | 148° |
| 2026-04-28 17:15 | 27.73361 | -17.83339 | 3837 ft | 177 kts | 109° |
| 2026-04-28 17:15 | 27.73189 | -17.81973 | 4211 ft | 181 kts | 93° |
| 2026-04-28 17:15 | 27.73148 | -17.80543 | 4655 ft | 182 kts | 90° |
| 2026-04-28 17:15 | 27.73128 | -17.79110 | 5124 ft | 183 kts | 89° |
| 2026-04-28 17:16 | 27.73109 | -17.77671 | 5570 ft | 184 kts | 89° |
| 2026-04-28 17:16 | 27.73089 | -17.76213 | 5999 ft | 186 kts | 89° |
| 2026-04-28 17:16 | 27.73068 | -17.74742 | 6422 ft | 188 kts | 89° |
| 2026-04-28 17:16 | 27.73045 | -17.73251 | 6838 ft | 190 kts | 89° |
| 2026-04-28 17:17 | 27.73028 | -17.71771 | 7263 ft | 191 kts | 90° |
| 2026-04-28 17:17 | 27.73021 | -17.70242 | 7651 ft | 193 kts | 89° |
| 2026-04-28 17:17 | 27.73018 | -17.68739 | 8013 ft | 196 kts | 89° |
| 2026-04-28 17:17 | 27.73022 | -17.67186 | 8389 ft | 198 kts | 89° |
| 2026-04-28 17:18 | 27.73070 | -17.65627 | 8769 ft | 200 kts | 87° |
| 2026-04-28 17:18 | 27.73140 | -17.64061 | 9137 ft | 201 kts | 86° |
| 2026-04-28 17:18 | 27.73215 | -17.62471 | 9507 ft | 203 kts | 86° |
| 2026-04-28 17:18 | 27.73290 | -17.60874 | 9875 ft | 204 kts | 86° |
| 2026-04-28 17:19 | 27.73365 | -17.59276 | 10222 ft | 206 kts | 86° |
| 2026-04-28 17:19 | 27.73442 | -17.57656 | 10576 ft | 207 kts | 86° |
| 2026-04-28 17:19 | 27.73531 | -17.56032 | 10905 ft | 209 kts | 85° |
| 2026-04-28 17:19 | 27.73630 | -17.54382 | 11256 ft | 210 kts | 85° |
| 2026-04-28 17:20 | 27.73728 | -17.52736 | 11592 ft | 212 kts | 85° |
| 2026-04-28 17:20 | 27.73794 | -17.51631 | 11824 ft | 212 kts | 85° |
| 2026-04-28 17:20 | 27.73923 | -17.49421 | 12261 ft | 214 kts | 85° |
| 2026-04-28 17:20 | 27.74021 | -17.47718 | 12598 ft | 215 kts | 85° |
| 2026-04-28 17:21 | 27.74116 | -17.46050 | 12898 ft | 217 kts | 85° |
| 2026-04-28 17:21 | 27.74211 | -17.44342 | 13137 ft | 223 kts | 85° |
| 2026-04-28 17:21 | 27.74312 | -17.42544 | 13238 ft | 234 kts | 85° |
| 2026-04-28 17:22 | 27.74527 | -17.38714 | 13266 ft | 255 kts | 85° |
| 2026-04-28 17:22 | 27.74641 | -17.36687 | 13266 ft | 262 kts | 85° |
| 2026-04-28 17:22 | 27.74758 | -17.34606 | 13265 ft | 267 kts | 85° |
| 2026-04-28 17:23 | 27.74995 | -17.30371 | 13263 ft | 273 kts | 85° |
| 2026-04-28 17:23 | 27.75115 | -17.28247 | 13263 ft | 275 kts | 85° |
| 2026-04-28 17:23 | 27.75235 | -17.26091 | 13263 ft | 276 kts | 85° |
| 2026-04-28 17:23 | 27.75351 | -17.23921 | 13262 ft | 277 kts | 85° |
| 2026-04-28 17:24 | 27.75465 | -17.21752 | 13263 ft | 277 kts | 85° |
| 2026-04-28 17:24 | 27.75579 | -17.19575 | 13263 ft | 279 kts | 85° |
| 2026-04-28 17:24 | 27.75694 | -17.17377 | 13263 ft | 280 kts | 85° |
| 2026-04-28 17:24 | 27.75808 | -17.15178 | 13262 ft | 281 kts | 85° |
| 2026-04-28 17:25 | 27.75915 | -17.12968 | 13262 ft | 282 kts | 85° |
| 2026-04-28 17:25 | 27.76123 | -17.08620 | 13095 ft | 284 kts | 87° |
| 2026-04-28 17:25 | 27.76238 | -17.06390 | 13024 ft | 284 kts | 87° |
| 2026-04-28 17:26 | 27.76353 | -17.04198 | 13004 ft | 282 kts | 86° |
| 2026-04-28 17:26 | 27.76468 | -17.01996 | 12997 ft | 280 kts | 86° |
| 2026-04-28 17:26 | 27.76576 | -16.99798 | 12996 ft | 279 kts | 85° |
| 2026-04-28 17:26 | 27.76685 | -16.97617 | 12996 ft | 278 kts | 85° |
| 2026-04-28 17:27 | 27.76794 | -16.95435 | 12996 ft | 279 kts | 85° |
| 2026-04-28 17:27 | 27.76893 | -16.93236 | 12996 ft | 279 kts | 86° |
| 2026-04-28 17:27 | 27.76990 | -16.91044 | 12996 ft | 280 kts | 86° |
| 2026-04-28 17:27 | 27.77095 | -16.88845 | 12996 ft | 281 kts | 86° |
| 2026-04-28 17:28 | 27.77204 | -16.86664 | 12997 ft | 281 kts | 86° |
| 2026-04-28 17:28 | 27.77428 | -16.82246 | 12996 ft | 282 kts | 86° |
| 2026-04-28 17:28 | 27.77537 | -16.80092 | 12996 ft | 282 kts | 86° |
| 2026-04-28 17:29 | 27.77649 | -16.77877 | 12996 ft | 282 kts | 86° |
| 2026-04-28 17:29 | 27.77761 | -16.75662 | 12996 ft | 282 kts | 86° |
| 2026-04-28 17:29 | 27.77873 | -16.73443 | 12996 ft | 283 kts | 86° |
| 2026-04-28 17:30 | 27.78092 | -16.69019 | 12996 ft | 283 kts | 86° |
| 2026-04-28 17:30 | 27.78310 | -16.64573 | 12996 ft | 283 kts | 86° |
| 2026-04-28 17:30 | 27.78418 | -16.62358 | 12996 ft | 283 kts | 86° |
| 2026-04-28 17:31 | 27.78526 | -16.60140 | 12996 ft | 283 kts | 86° |
| 2026-04-28 17:31 | 27.78741 | -16.55708 | 12996 ft | 283 kts | 86° |
| 2026-04-28 17:32 | 27.78955 | -16.51261 | 12996 ft | 283 kts | 86° |
| 2026-04-28 17:32 | 27.79061 | -16.49067 | 12996 ft | 283 kts | 86° |
| 2026-04-28 17:32 | 27.79168 | -16.46841 | 12996 ft | 284 kts | 86° |
| 2026-04-28 17:32 | 27.79274 | -16.44615 | 12996 ft | 284 kts | 86° |
| 2026-04-28 17:33 | 27.79380 | -16.42390 | 12996 ft | 284 kts | 86° |
| 2026-04-28 17:33 | 27.79486 | -16.40162 | 12996 ft | 284 kts | 86° |
| 2026-04-28 17:33 | 27.79592 | -16.37942 | 12996 ft | 283 kts | 86° |
| 2026-04-28 17:33 | 27.79662 | -16.36457 | 12996 ft | 283 kts | 86° |
| 2026-04-28 17:34 | 27.79800 | -16.33482 | 12996 ft | 283 kts | 86° |
| 2026-04-28 17:34 | 27.79886 | -16.31242 | 12857 ft | 287 kts | 87° |
| 2026-04-28 17:34 | 27.79966 | -16.28984 | 12659 ft | 288 kts | 87° |
| 2026-04-28 17:34 | 27.80044 | -16.26748 | 12463 ft | 289 kts | 87° |
| 2026-04-28 17:35 | 27.80122 | -16.24462 | 12261 ft | 290 kts | 87° |
| 2026-04-28 17:35 | 27.80202 | -16.22190 | 12060 ft | 288 kts | 87° |
| 2026-04-28 17:35 | 27.80288 | -16.19982 | 11860 ft | 278 kts | 87° |
| 2026-04-28 17:35 | 27.80375 | -16.17816 | 11656 ft | 273 kts | 87° |
| 2026-04-28 17:36 | 27.80461 | -16.15690 | 11455 ft | 270 kts | 87° |
| 2026-04-28 17:36 | 27.80546 | -16.13577 | 11254 ft | 268 kts | 87° |
| 2026-04-28 17:36 | 27.80630 | -16.11479 | 11053 ft | 267 kts | 87° |
| 2026-04-28 17:36 | 27.80714 | -16.09394 | 10853 ft | 265 kts | 87° |
| 2026-04-28 17:37 | 27.80797 | -16.07317 | 10653 ft | 264 kts | 87° |
| 2026-04-28 17:37 | 27.80881 | -16.05239 | 10452 ft | 264 kts | 87° |
| 2026-04-28 17:37 | 27.80962 | -16.03187 | 10260 ft | 259 kts | 87° |
| 2026-04-28 17:37 | 27.81038 | -16.01181 | 10128 ft | 254 kts | 87° |
| 2026-04-28 17:38 | 27.81113 | -15.99210 | 10065 ft | 247 kts | 87° |
| 2026-04-28 17:38 | 27.81190 | -15.97292 | 9884 ft | 247 kts | 87° |
| 2026-04-28 17:38 | 27.81268 | -15.95348 | 9708 ft | 247 kts | 86° |
| 2026-04-28 17:38 | 27.81346 | -15.93402 | 9534 ft | 248 kts | 86° |
| 2026-04-28 17:39 | 27.81419 | -15.91580 | 9374 ft | 246 kts | 88° |
| 2026-04-28 17:39 | 27.81485 | -15.89652 | 9198 ft | 244 kts | 88° |
| 2026-04-28 17:39 | 27.81288 | -15.85864 | 8851 ft | 242 kts | 102° |
| 2026-04-28 17:40 | 27.80854 | -15.84042 | 8679 ft | 245 kts | 105° |
| 2026-04-28 17:40 | 27.80346 | -15.82189 | 8497 ft | 248 kts | 107° |
| 2026-04-28 17:40 | 27.79819 | -15.80325 | 8296 ft | 249 kts | 107° |
| 2026-04-28 17:40 | 27.79294 | -15.78469 | 8087 ft | 246 kts | 107° |
| 2026-04-28 17:41 | 27.78777 | -15.76641 | 7860 ft | 244 kts | 107° |
| 2026-04-28 17:41 | 27.78258 | -15.74812 | 7633 ft | 242 kts | 107° |
| 2026-04-28 17:41 | 27.77743 | -15.73003 | 7385 ft | 242 kts | 107° |
| 2026-04-28 17:41 | 27.77225 | -15.71187 | 7135 ft | 243 kts | 107° |
| 2026-04-28 17:42 | 27.76707 | -15.69374 | 6883 ft | 243 kts | 107° |
| 2026-04-28 17:42 | 27.76365 | -15.68177 | 6699 ft | 243 kts | 107° |
| 2026-04-28 17:42 | 27.75666 | -15.65735 | 6332 ft | 244 kts | 107° |
| 2026-04-28 17:42 | 27.75153 | -15.63938 | 6061 ft | 246 kts | 107° |
| 2026-04-28 17:43 | 27.74626 | -15.62095 | 5784 ft | 245 kts | 107° |
| 2026-04-28 17:43 | 27.74101 | -15.60259 | 5512 ft | 247 kts | 107° |
| 2026-04-28 17:43 | 27.73572 | -15.58412 | 5240 ft | 248 kts | 107° |
| 2026-04-28 17:43 | 27.73041 | -15.56558 | 4963 ft | 248 kts | 107° |
| 2026-04-28 17:44 | 27.72509 | -15.54714 | 4687 ft | 247 kts | 107° |
| 2026-04-28 17:44 | 27.71977 | -15.52870 | 4411 ft | 243 kts | 107° |
| 2026-04-28 17:44 | 27.71459 | -15.51081 | 4133 ft | 234 kts | 107° |
| 2026-04-28 17:44 | 27.71026 | -15.49361 | 3824 ft | 222 kts | 99° |
| 2026-04-28 17:45 | 27.71239 | -15.47737 | 3535 ft | 208 kts | 68° |
| 2026-04-28 17:45 | 27.72148 | -15.46569 | 3280 ft | 195 kts | 35° |
| 2026-04-28 17:45 | 27.73316 | -15.45916 | 3144 ft | 181 kts | 21° |
| 2026-04-28 17:45 | 27.74495 | -15.45567 | 3048 ft | 168 kts | 9° |
| 2026-04-28 17:46 | 27.75617 | -15.45513 | 3027 ft | 160 kts | 357° |
| 2026-04-28 17:46 | 27.76682 | -15.45650 | 3017 ft | 148 kts | 355° |
| 2026-04-28 17:46 | 27.77639 | -15.45454 | 3018 ft | 135 kts | 14° |
| 2026-04-28 17:46 | 27.78530 | -15.45081 | 2908 ft | 133 kts | 19° |
| 2026-04-28 17:47 | 27.79088 | -15.44838 | 2824 ft | 133 kts | 19° |
| 2026-04-28 17:47 | 27.79971 | -15.44455 | 2649 ft | 135 kts | 19° |
| 2026-04-28 17:47 | 27.81148 | -15.43947 | 2392 ft | 137 kts | 19° |
| 2026-04-28 17:47 | 27.81450 | -15.43816 | 2325 ft | 137 kts | 19° |
| 2026-04-28 17:48 | 27.82933 | -15.43171 | 1985 ft | 134 kts | 19° |
| 2026-04-28 17:48 | 27.83509 | -15.42918 | 1848 ft | 131 kts | 20° |
| 2026-04-28 17:48 | 27.84332 | -15.42560 | 1652 ft | 125 kts | 20° |
| 2026-04-28 17:48 | 27.85142 | -15.42201 | 1511 ft | 124 kts | 19° |
| 2026-04-28 17:49 | 27.85942 | -15.41849 | 1353 ft | 122 kts | 19° |
| 2026-04-28 17:49 | 27.86719 | -15.41510 | 1192 ft | 113 kts | 19° |
| 2026-04-28 17:49 | 27.87409 | -15.41204 | 1069 ft | 108 kts | 19° |
| 2026-04-28 17:49 | 27.88098 | -15.40901 | 915 ft | 104 kts | 20° |
| 2026-04-28 17:50 | 27.88781 | -15.40605 | 777 ft | 104 kts | 20° |
| 2026-04-28 17:50 | 27.89453 | -15.40312 | 649 ft | 105 kts | 20° |
| 2026-04-28 17:50 | 27.90139 | -15.40011 | 512 ft | 106 kts | 21° |
| 2026-04-28 17:50 | 27.90831 | -15.39711 | 363 ft | 107 kts | 21° |
| 2026-04-28 17:51 | 27.91517 | -15.39403 | 233 ft | 104 kts | 22° |
| 2026-04-28 17:51 | 27.92134 | -15.39124 | 99 ft | 84 kts | 21° |
| 2026-04-28 17:51 | 27.92577 | -15.38929 | 85 ft | 54 kts | 21° |
| 2026-04-28 17:51 | 27.92871 | -15.38798 | 85 ft | 38 kts | 21° |
| 2026-04-28 17:52 | 27.93058 | -15.38724 | 85 ft | 20 kts | 359° |
| 2026-04-28 17:52 | 27.93165 | -15.38739 | 85 ft | 11 kts | 355° |
| 2026-04-28 17:52 | 27.93301 | -15.38743 | 85 ft | 10 kts | 355° |
| 2026-04-28 17:53 | 27.93374 | -15.38756 | 85 ft | 11 kts | 338° |
| 2026-04-28 17:53 | 27.93446 | -15.38809 | 85 ft | 13 kts | 318° |
| 2026-04-28 17:53 | 27.93488 | -15.38902 | 85 ft | 12 kts | 290° |
| 2026-04-28 17:53 | 27.93505 | -15.38952 | 85 ft | 0 kts | 290° |